Погода Подкамёнкана 2 недели

Подляское воеводство, Польша

17 - 30 июля
  • 17июля
    Сегодня
    +17°
    +29°
    Облачно с прояснениями
    ВремяПогодаТемператураВлажностьДавлениеВетер, м/сВероятность осадков
    02:00Небольшая облачность, ливень+21°C93 %742 мм1.2 м/с73 %
    05:00Ясно и безоблачно+19°C97 %743 мм1.5 м/с44 %
    08:00Небольшая облачность+22°C79 %745 мм3.4 м/с4 %
    11:00Небольшая облачность+27°C53 %745 мм3.1 м/с2 %
    14:00Облачно с прояснениями+29°C44 %745 мм4.3 м/с2 %
    17:00Облачно с прояснениями+28°C45 %745 мм4.3 м/с6 %
    20:00Небольшая облачность+25°C50 %746 мм2.5 м/с2 %
    23:00Облачно с прояснениями+20°C55 %747 мм3.4 м/с4 %
  • 18июля
    Четверг
    +13°
    +27°
    Небольшая облачность
    ВремяПогодаТемператураВлажностьДавлениеВетер, м/сВероятность осадков
    02:00Облачно с прояснениями+18°C67 %746 мм2.8 м/с6 %
    05:00Ясно и безоблачно+18°C84 %747 мм1.1 м/с13 %
    08:00Ясно и безоблачно+21°C67 %748 мм1.7 м/с2 %
    11:00Практически безоблачно+25°C47 %748 мм4.0 м/с14 %
    14:00Небольшая облачность+27°C41 %747 мм4.9 м/с21 %
    17:00Практически безоблачно+26°C41 %747 мм5.3 м/с7 %
    20:00Ясно и безоблачно+23°C51 %747 мм3.6 м/с2 %
    23:00Ясно и безоблачно+18°C67 %748 мм2.9 м/с2 %
  • 19июля
    Пятница
    +11°
    +25°
    Ясно и безоблачно
    ВремяПогодаТемператураВлажностьДавлениеВетер, м/сВероятность осадков
    02:00Практически безоблачно+15°C76 %748 мм3.4 м/с2 %
    05:00Ясно и безоблачно+14°C87 %748 мм3.0 м/с2 %
    08:00Ясно и безоблачно+18°C72 %748 мм2.9 м/с2 %
    11:00Ясно и безоблачно+22°C51 %748 мм3.8 м/с2 %
    14:00Ясно и безоблачно+25°C42 %747 мм4.2 м/с2 %
    17:00Ясно и безоблачно+25°C42 %746 мм4.2 м/с2 %
    20:00Ясно и безоблачно+22°C49 %745 мм2.9 м/с2 %
    23:00Ясно и безоблачно+16°C60 %745 мм3.3 м/с2 %
  • 20июля
    Суббота
    +14°
    +26°
    Ясно и безоблачно
    ВремяПогодаТемператураВлажностьДавлениеВетер, м/сВероятность осадков
    02:00Небольшая облачность+13°C78 %745 мм1.9 м/с2 %
    05:00Облачно с прояснениями+12°C88 %744 мм1.5 м/с2 %
    08:00Небольшая облачность+17°C71 %744 мм1.1 м/с2 %
    11:00Ясно и безоблачно+22°C47 %743 мм2.1 м/с2 %
    14:00Ясно и безоблачно+25°C37 %743 мм1.9 м/с4 %
    17:00Ясно и безоблачно+25°C35 %741 мм1.7 м/с3 %
    20:00Ясно и безоблачно+22°C47 %741 мм1.6 м/с3 %
    23:00Ясно и безоблачно+18°C59 %741 мм2.5 м/с2 %
  • 21июля
    Воскресенье
    +14°
    +27°
    Практически безоблачно
    ВремяПогодаТемператураВлажностьДавлениеВетер, м/сВероятность осадков
    02:00Ясно и безоблачно+16°C75 %740 мм1.9 м/с2 %
    05:00Ясно и безоблачно+14°C85 %740 мм1.6 м/с2 %
    08:00Ясно и безоблачно+20°C64 %740 мм0.9 м/с2 %
    11:00Практически безоблачно+24°C45 %740 мм2.7 м/с6 %
    14:00Практически безоблачно+26°C38 %739 мм2.8 м/с10 %
    17:00Практически безоблачно+26°C34 %739 мм2.5 м/с7 %
    20:00Ясно и безоблачно+23°C53 %739 мм1.6 м/с2 %
    23:00Ясно и безоблачно+18°C50 %739 мм2.8 м/с2 %
Мы используем cookies
Соглашаюсь